Time;durP1;ratioP1;P1;durP2;ratioP2;P2;SDS_P1;SDS_P2;PMS_P1;PMS_P2;Temp;Humidity;BMP_temperature;BMP_pressure;BME280_temperature;BME280_humidity;BME280_pressure;Samples;Min_cycle;Max_cycle;Signal;HPM_P1;HPM_P2
2021/05/31 06:32:47;;;;;;;11.30;4.40;;;14.70;99.90;;;;;;6134140;22;21312;31
2021/05/31 06:35:17;;;;;;;5.68;3.45;;;14.80;99.90;;;;;;6144405;23;20048;-78
2021/05/31 06:37:44;;;;;;;5.93;3.40;;;14.90;99.90;;;;;;6122826;23;20041;-79
2021/05/31 06:40:16;;;;;;;5.35;3.38;;;15.00;99.90;;;;;;6144575;23;20042;-82
2021/05/31 06:42:46;;;;;;;10.23;3.33;;;15.10;99.90;;;;;;6169214;23;20049;-80
2021/05/31 06:45:16;;;;;;;5.95;3.35;;;15.10;99.50;;;;;;6142521;23;20041;-81
2021/05/31 06:47:47;;;;;;;6.22;3.30;;;15.20;99.00;;;;;;6141894;23;20044;-84
2021/05/31 06:50:18;;;;;;;5.40;2.60;;;15.30;98.00;;;;;;6141154;23;20061;-85
2021/05/31 06:52:46;;;;;;;9.77;3.33;;;15.40;97.70;;;;;;6140395;23;20037;-85
2021/05/31 06:55:14;;;;;;;5.28;3.15;;;15.40;97.10;;;;;;6140576;23;20044;-86
2021/05/31 06:57:46;;;;;;;8.45;3.30;;;15.50;96.00;;;;;;6141792;23;20072;-85
2021/05/31 07:00:15;;;;;;;6.72;3.00;;;15.60;95.00;;;;;;6141540;23;20049;-86
2021/05/31 07:02:43;;;;;;;;;;;15.60;94.50;;;;;;6116855;23;20049;-87
2021/05/31 07:05:13;;;;;;;5.05;2.75;;;15.60;93.90;;;;;;6140735;23;19965;-87
2021/05/31 07:07:42;;;;;;;7.60;2.55;;;15.50;93.20;;;;;;6143292;23;20054;-86
2021/05/31 07:10:14;;;;;;;5.38;2.58;;;15.50;92.20;;;;;;6133903;23;20001;-86
2021/05/31 07:12:42;;;;;;;7.03;3.33;;;15.60;92.00;;;;;;6121828;23;20017;-84
2021/05/31 07:15:12;;;;;;;7.22;3.05;;;15.70;91.20;;;;;;6118165;23;20045;-86
2021/05/31 07:17:42;;;;;;;6.20;2.60;;;15.70;90.50;;;;;;6143176;23;20234;-84
2021/05/31 07:20:12;;;;;;;7.45;2.33;;;15.70;88.50;;;;;;6116684;23;20033;-85
2021/05/31 07:22:42;;;;;;;6.50;2.40;;;15.80;86.40;;;;;;6165788;23;20034;-85
2021/05/31 07:25:13;;;;;;;4.95;2.17;;;15.90;83.90;;;;;;6140735;23;20041;-85
2021/05/31 07:27:43;;;;;;;5.13;2.72;;;16.00;82.30;;;;;;6141152;23;20057;-84
2021/05/31 07:30:14;;;;;;;9.43;3.40;;;16.10;83.10;;;;;;6141103;23;20234;-85
2021/05/31 07:32:41;;;;;;;7.32;3.03;;;16.30;84.30;;;;;;6166297;23;20365;-83
2021/05/31 07:35:10;;;;;;;7.88;3.63;;;16.40;83.70;;;;;;6195164;23;20045;-84
2021/05/31 07:37:38;;;;;;;5.38;2.53;;;16.50;82.30;;;;;;6194680;23;20095;-82
2021/05/31 07:40:11;;;;;;;5.55;2.78;;;16.50;81.90;;;;;;6194238;23;20049;-84
2021/05/31 07:42:39;;;;;;;5.47;2.33;;;16.70;81.50;;;;;;6169230;23;20037;-84
2021/05/31 07:45:07;;;;;;;5.70;2.65;;;16.70;79.60;;;;;;6218467;23;20315;-86
2021/05/31 07:47:38;;;;;;;4.53;2.30;;;16.60;78.50;;;;;;6193891;23;20029;-85
2021/05/31 07:50:07;;;;;;;4.38;2.03;;;16.70;77.60;;;;;;6169932;23;20053;-86
2021/05/31 07:52:38;;;;;;;3.85;2.03;;;16.80;75.70;;;;;;6195699;23;20332;-85
2021/05/31 07:55:12;;;;;;;5.40;2.45;;;16.90;73.80;;;;;;6169971;23;20040;-83
2021/05/31 07:57:42;;;;;;;5.47;2.42;;;17.00;72.60;;;;;;6167802;23;20262;-84
2021/05/31 08:00:12;;;;;;;3.72;2.22;;;17.00;71.60;;;;;;6194026;23;20045;-83
2021/05/31 08:02:44;;;;;;;7.60;3.08;;;17.00;69.90;;;;;;6194032;23;20282;-82
2021/05/31 08:05:13;;;;;;;9.30;2.58;;;17.10;69.80;;;;;;6170300;23;20045;-85
2021/05/31 08:08:04;;;;;;;3.58;2.05;;;17.10;69.90;;;;;;6196415;23;20045;-82
2021/05/31 08:10:38;;;;;;;5.43;2.17;;;17.30;68.70;;;;;;6151181;23;20053;-81
2021/05/31 08:13:45;;;;;;;22.50;13.73;;;17.30;68.20;;;;;;6169696;23;20045;-84
2021/05/31 08:24:11;;;;;;;9.25;2.70;;;17.60;63.20;;;;;;6193084;23;20056;-83
2021/05/31 08:43:00;;;;;;;4.50;2.40;;;17.40;62.90;;;;;;6193101;23;20047;-84
2021/05/31 08:46:08;;;;;;;7.05;2.65;;;17.40;64.10;;;;;;6182817;23;20164;-83
2021/05/31 08:52:58;;;;;;;7.90;2.90;;;17.10;64.00;;;;;;6075624;23;20045;-82
2021/05/31 08:55:39;;;;;;;5.80;2.80;;;17.30;63.10;;;;;;6169331;23;20320;-81
2021/05/31 08:58:14;;;;;;;6.90;2.97;;;17.40;62.70;;;;;;6168490;23;20045;-85
2021/05/31 09:00:50;;;;;;;11.20;3.65;;;17.60;62.50;;;;;;6174031;23;20044;-86
2021/05/31 09:04:38;;;;;;;;;;;;;;;;;;;;;
2021/05/31 09:08:45;;;;;;;6.18;2.83;;;17.90;60.30;;;;;;6044257;23;20058;-85
2021/05/31 09:11:58;;;;;;;9.93;2.58;;;17.80;60.30;;;;;;6088118;23;20114;-86
2021/05/31 09:14:56;;;;;;;8.50;2.33;;;18.00;59.70;;;;;;6106044;23;20050;-78
2021/05/31 09:18:04;;;;;;;7.72;3.65;;;18.30;59.20;;;;;;6076909;23;20050;-83
2021/05/31 09:21:30;;;;;;;7.35;2.88;;;18.60;57.80;;;;;;6103846;23;20322;-85
2021/05/31 09:24:05;;;;;;;6.72;3.40;;;18.40;56.70;;;;;;6044851;23;20050;-87
2021/05/31 09:26:44;;;;;;;9.25;2.92;;;18.00;57.70;;;;;;6079095;23;20062;-86
2021/05/31 09:29:12;;;;;;;6.93;2.55;;;18.30;57.70;;;;;;6078215;23;20046;-85
2021/05/31 09:31:40;;;;;;;4.80;2.13;;;18.60;57.50;;;;;;6076463;23;20038;-85
2021/05/31 09:34:08;;;;;;;;;;;18.80;56.70;;;;;;6116694;23;20054;-82
2021/05/31 09:36:49;;;;;;;5.77;2.60;;;19.00;55.70;;;;;;6107843;23;19953;-81
2021/05/31 09:39:18;;;;;;;5.05;2.38;;;19.20;55.20;;;;;;6084133;23;20102;-82
2021/05/31 09:41:48;;;;;;;9.27;2.63;;;19.50;55.10;;;;;;6083874;23;20090;-83
2021/05/31 09:44:16;;;;;;;5.78;2.60;;;19.90;53.20;;;;;;6165562;23;20041;-82
2021/05/31 09:46:47;;;;;;;4.80;2.57;;;20.40;51.90;;;;;;6114079;23;20046;-81
2021/05/31 09:49:16;;;;;;;8.40;3.25;;;20.50;51.50;;;;;;6167350;23;20265;-83
2021/05/31 09:52:07;;;;;;;8.07;2.90;;;20.80;50.60;;;;;;6113111;23;20250;-81
2021/05/31 09:54:36;;;;;;;6.30;3.00;;;21.00;50.20;;;;;;6132042;23;20049;-84
2021/05/31 09:57:22;;;;;;;4.88;2.90;;;20.90;52.70;;;;;;6139626;23;20053;-83
2021/05/31 09:59:53;;;;;;;4.80;2.92;;;21.00;54.10;;;;;;6166853;23;20345;-82
2021/05/31 10:02:42;;;;;;;5.03;2.60;;;20.90;53.70;;;;;;6116630;23;20256;-85
2021/05/31 10:05:22;;;;;;;8.38;5.20;;;20.70;53.40;;;;;;6113732;23;20045;-81
2021/05/31 10:07:55;;;;;;;7.55;3.30;;;20.70;54.20;;;;;;6139931;23;20049;-82
2021/05/31 10:10:22;;;;;;;6.35;2.80;;;20.80;54.20;;;;;;6141631;23;20015;-81
2021/05/31 10:12:50;;;;;;;5.22;2.65;;;20.90;54.00;;;;;;6140544;23;20226;-82
2021/05/31 10:15:19;;;;;;;7.37;3.57;;;21.00;53.50;;;;;;6117426;23;20046;-81
2021/05/31 10:17:50;;;;;;;5.63;3.05;;;21.20;53.10;;;;;;6166958;23;20041;-82
2021/05/31 10:20:18;;;;;;;4.70;2.00;;;21.10;52.70;;;;;;6166385;23;20238;-80
2021/05/31 10:22:47;;;;;;;7.63;2.72;;;21.10;52.80;;;;;;6117148;23;20248;-82
2021/05/31 10:25:16;;;;;;;6.50;2.55;;;21.40;52.80;;;;;;6166873;23;20045;-83
2021/05/31 10:27:44;;;;;;;;;;;21.70;51.60;;;;;;6143372;23;20262;-82
2021/05/31 10:30:19;;;;;;;7.45;2.50;;;22.00;51.10;;;;;;6190557;23;20006;-83
2021/05/31 10:32:47;;;;;;;5.70;2.22;;;22.20;50.50;;;;;;6116469;23;20040;-81
2021/05/31 10:35:15;;;;;;;;;;;22.30;49.70;;;;;;6194697;23;20049;-83
2021/05/31 10:37:52;;;;;;;3.72;2.15;;;22.50;49.10;;;;;;6196128;23;19964;-81
2021/05/31 10:40:22;;;;;;;4.90;2.10;;;22.50;49.20;;;;;;6171527;23;20108;-82
2021/05/31 10:42:52;;;;;;;8.32;2.50;;;22.50;49.20;;;;;;6200103;23;20020;-84
2021/05/31 10:45:28;;;;;;;4.97;2.20;;;22.50;48.20;;;;;;6194820;23;20282;-83
2021/05/31 10:47:59;;;;;;;6.65;2.42;;;22.40;47.90;;;;;;6194509;23;20037;-82
2021/05/31 10:50:35;;;;;;;11.13;2.45;;;22.60;48.10;;;;;;6194948;23;20040;-82
2021/05/31 10:53:03;;;;;;;3.35;1.65;;;23.50;48.20;;;;;;6198284;23;20049;-85
2021/05/31 10:55:36;;;;;;;4.95;1.85;;;25.30;44.30;;;;;;6200871;23;20012;-85
2021/05/31 10:58:16;;;;;;;5.10;2.08;;;25.50;42.80;;;;;;6201009;23;20016;-86
2021/05/31 11:00:53;;;;;;;4.35;2.30;;;24.80;42.80;;;;;;6198278;23;20005;-86
2021/05/31 11:03:24;;;;;;;9.60;2.70;;;24.10;43.80;;;;;;6179632;23;20009;-87
2021/05/31 11:05:52;;;;;;;5.65;2.00;;;23.40;45.00;;;;;;6175529;23;20043;-84
2021/05/31 11:08:28;;;;;;;6.20;2.10;;;22.90;45.20;;;;;;6204312;23;20249;-84
2021/05/31 11:10:57;;;;;;;4.63;2.20;;;22.60;46.70;;;;;;6204915;23;20032;-85
2021/05/31 11:13:27;;;;;;;5.13;2.10;;;22.40;47.00;;;;;;6178367;23;20016;-86
2021/05/31 11:16:01;;;;;;;;;;;22.10;46.60;;;;;;6175542;23;20024;-85
2021/05/31 11:18:40;;;;;;;4.65;2.05;;;22.10;46.30;;;;;;6201896;23;19920;-85
2021/05/31 11:21:08;;;;;;;3.42;1.90;;;23.80;44.80;;;;;;6202106;23;20013;-83
2021/05/31 11:23:36;;;;;;;3.50;2.03;;;26.30;42.00;;;;;;6207027;23;20319;-85
2021/05/31 11:26:04;;;;;;;6.03;2.05;;;29.00;38.60;;;;;;6203722;23;20005;-84
2021/05/31 11:28:31;;;;;;;3.65;1.70;;;30.80;36.40;;;;;;6182377;23;20012;-84
2021/05/31 11:31:03;;;;;;;3.05;1.67;;;32.30;34.30;;;;;;6187581;23;20021;-86
2021/05/31 11:33:38;;;;;;;3.83;1.88;;;32.60;32.40;;;;;;6207206;23;20025;-85
2021/05/31 11:36:08;;;;;;;3.88;1.70;;;31.60;32.50;;;;;;6178557;23;20027;-84
2021/05/31 11:38:40;;;;;;;4.18;1.73;;;29.80;33.60;;;;;;6197972;23;20033;-83
2021/05/31 11:41:11;;;;;;;7.30;1.77;;;30.00;34.20;;;;;;6197222;23;20034;-84
2021/05/31 11:43:49;;;;;;;3.38;1.90;;;31.40;33.80;;;;;;6195820;23;20037;-85
2021/05/31 11:46:17;;;;;;;2.65;1.40;;;32.50;32.00;;;;;;6195913;23;20045;-85
2021/05/31 11:48:47;;;;;;;4.38;1.65;;;33.80;31.30;;;;;;6195591;23;20253;-87
2021/05/31 11:51:15;;;;;;;3.85;1.90;;;33.20;30.40;;;;;;6195786;23;20045;-84
2021/05/31 11:53:45;;;;;;;3.70;1.70;;;31.80;31.20;;;;;;6195547;23;20060;-84
2021/05/31 11:56:13;;;;;;;3.60;1.60;;;30.80;31.60;;;;;;6197756;23;20209;-84
2021/05/31 11:58:41;;;;;;;4.50;1.48;;;30.70;32.60;;;;;;6198054;23;20045;-85
2021/05/31 12:01:10;;;;;;;3.30;1.50;;;32.10;31.50;;;;;;6172372;23;20041;-83
2021/05/31 12:03:45;;;;;;;5.38;2.03;;;33.60;30.90;;;;;;6203968;23;20015;-87
2021/05/31 12:06:16;;;;;;;2.97;1.58;;;34.90;29.90;;;;;;6203900;23;20020;-82
2021/05/31 12:08:46;;;;;;;3.65;1.67;;;36.00;29.10;;;;;;6204430;23;20016;-83
2021/05/31 12:11:19;;;;;;;2.20;1.50;;;36.80;28.00;;;;;;6204094;23;20013;-87
2021/05/31 12:13:47;;;;;;;3.50;1.50;;;37.50;28.20;;;;;;6203629;23;20008;-86
2021/05/31 12:16:19;;;;;;;6.80;2.47;;;38.50;27.50;;;;;;6205808;23;20016;-84
2021/05/31 12:18:50;;;;;;;2.70;1.33;;;39.00;26.70;;;;;;6178934;23;20080;-82
2021/05/31 12:21:22;;;;;;;3.20;1.60;;;38.90;26.80;;;;;;6180008;23;20016;-85
2021/05/31 12:23:50;;;;;;;3.85;1.77;;;39.20;26.60;;;;;;6177395;23;20012;-84
2021/05/31 12:26:21;;;;;;;4.88;1.55;;;39.20;26.40;;;;;;6177570;23;20264;-85
2021/05/31 12:28:52;;;;;;;2.47;1.13;;;39.40;26.10;;;;;;6178516;23;20016;-83
2021/05/31 12:31:51;;;;;;;4.13;2.80;;;39.40;26.10;;;;;;6207058;23;20013;-84
2021/05/31 12:34:25;;;;;;;3.90;1.50;;;40.50;25.50;;;;;;6180130;23;20031;-82
2021/05/31 12:36:54;;;;;;;3.03;1.42;;;40.00;25.30;;;;;;6203684;23;20312;-83
2021/05/31 12:39:25;;;;;;;3.63;1.35;;;39.60;25.50;;;;;;6200583;23;20016;-83
2021/05/31 12:41:55;;;;;;;3.42;1.70;;;39.50;25.90;;;;;;6176173;23;20332;-82
2021/05/31 12:44:27;;;;;;;2.72;1.63;;;39.60;25.70;;;;;;6203556;23;20017;-83
2021/05/31 12:47:09;;;;;;;4.32;1.90;;;39.40;25.30;;;;;;6178009;23;20013;-82
2021/05/31 12:49:43;;;;;;;3.80;1.50;;;39.00;26.10;;;;;;6200736;23;20562;-83
2021/05/31 12:52:12;;;;;;;3.17;1.33;;;39.70;25.70;;;;;;6203713;23;20528;-82
2021/05/31 12:54:40;;;;;;;4.18;1.80;;;40.40;25.70;;;;;;6201590;23;20013;-84
2021/05/31 12:57:10;;;;;;;6.80;1.92;;;40.60;25.30;;;;;;6200843;23;20049;-84
2021/05/31 12:59:39;;;;;;;7.28;2.10;;;40.50;25.50;;;;;;6201832;23;20009;-83
2021/05/31 13:02:18;;;;;;;7.70;1.90;;;40.50;25.40;;;;;;6202396;23;20016;-85
2021/05/31 13:04:45;;;;;;;4.25;1.67;;;40.00;25.00;;;;;;6206562;23;20012;-81
2021/05/31 13:07:16;;;;;;;3.83;1.52;;;39.50;25.60;;;;;;6205362;23;20016;-81
2021/05/31 13:09:45;;;;;;;6.90;1.70;;;39.70;25.70;;;;;;6208590;23;20005;-83
2021/05/31 13:12:15;;;;;;;10.05;2.40;;;40.00;25.70;;;;;;6208224;23;20009;-84
2021/05/31 13:14:47;;;;;;;4.15;1.75;;;40.50;25.40;;;;;;6210053;23;20013;-85
2021/05/31 13:17:21;;;;;;;5.18;1.80;;;41.00;25.20;;;;;;6208853;23;20013;-84
2021/05/31 13:19:53;;;;;;;3.95;1.60;;;40.90;25.20;;;;;;6179889;23;20009;-85
2021/05/31 13:22:25;;;;;;;2.72;1.40;;;40.90;24.90;;;;;;6205956;23;20013;-86
2021/05/31 13:24:53;;;;;;;3.55;1.70;;;40.60;25.10;;;;;;6200750;23;20016;-86
2021/05/31 13:27:22;;;;;;;;;;;40.90;25.10;;;;;;6152127;23;20016;-86
2021/05/31 13:30:06;;;;;;;3.10;1.30;;;40.20;25.30;;;;;;6181050;23;19920;-87
2021/05/31 13:32:36;;;;;;;7.78;1.60;;;40.00;25.00;;;;;;6211153;23;20020;-87
2021/05/31 13:35:07;;;;;;;4.50;1.77;;;39.60;25.30;;;;;;6208888;23;20027;-86
2021/05/31 13:37:45;;;;;;;5.60;1.63;;;39.60;25.80;;;;;;6187133;23;20024;-87
2021/05/31 13:40:14;;;;;;;5.80;1.88;;;39.80;25.70;;;;;;6210284;23;20008;-84
2021/05/31 13:42:51;;;;;;;7.40;2.60;;;39.30;25.90;;;;;;6205396;23;20013;-85
2021/05/31 13:45:20;;;;;;;3.17;1.77;;;38.50;26.10;;;;;;6202389;23;20041;-85
2021/05/31 13:47:50;;;;;;;3.20;1.85;;;38.80;26.40;;;;;;6205215;23;20009;-84
2021/05/31 13:50:20;;;;;;;;;;;39.60;26.20;;;;;;6205448;23;20331;-86
2021/05/31 13:52:49;;;;;;;3.33;1.85;;;40.40;26.00;;;;;;6202750;23;20176;-84
2021/05/31 13:55:20;;;;;;;5.00;1.60;;;41.20;25.60;;;;;;6201952;23;20529;-84
2021/05/31 13:57:53;;;;;;;4.10;2.20;;;41.50;25.40;;;;;;6202700;23;20042;-84
2021/05/31 14:00:26;;;;;;;3.50;1.60;;;41.70;25.20;;;;;;6203962;23;20008;-87
2021/05/31 14:02:57;;;;;;;4.55;2.03;;;41.80;25.40;;;;;;6201667;23;20015;-84
2021/05/31 14:05:25;;;;;;;5.95;1.70;;;42.10;24.60;;;;;;6207733;23;20016;-82
2021/05/31 14:08:01;;;;;;;3.45;1.70;;;42.50;28.50;;;;;;6229564;23;20013;-87
2021/05/31 14:10:55;;;;;;;6.20;1.55;;;42.50;25.60;;;;;;6202277;23;20042;-85
2021/05/31 14:13:25;;;;;;;3.08;1.45;;;41.70;24.70;;;;;;6178424;23;20012;-85
2021/05/31 14:15:56;;;;;;;5.32;1.95;;;41.40;24.70;;;;;;6202250;23;20016;-83
2021/05/31 14:18:23;;;;;;;5.40;1.83;;;41.20;25.10;;;;;;6177200;23;20049;-84
2021/05/31 14:20:51;;;;;;;3.17;1.83;;;41.50;25.20;;;;;;6177909;23;20020;-82
2021/05/31 14:23:48;;;;;;;3.88;1.80;;;41.50;25.10;;;;;;6199006;23;20037;-84
2021/05/31 14:26:17;;;;;;;5.45;1.90;;;41.60;25.10;;;;;;6197038;23;20041;-84
2021/05/31 14:28:46;;;;;;;4.68;1.67;;;41.70;25.20;;;;;;6174618;23;20064;-84
2021/05/31 14:31:16;;;;;;;3.17;1.67;;;41.80;25.00;;;;;;6199802;23;20005;-86
2021/05/31 14:33:43;;;;;;;2.75;1.67;;;42.00;25.20;;;;;;6193770;23;20056;-82
2021/05/31 14:36:11;;;;;;;3.72;1.58;;;42.30;25.00;;;;;;6195347;23;20033;-87
2021/05/31 14:38:44;;;;;;;3.30;1.50;;;42.10;24.90;;;;;;6194557;23;20053;-84
2021/05/31 14:41:13;;;;;;;3.92;2.22;;;42.40;24.90;;;;;;6199808;23;20016;-85
2021/05/31 14:43:41;;;;;;;4.70;2.63;;;42.70;24.70;;;;;;6197081;23;20118;-85
2021/05/31 14:46:13;;;;;;;4.50;2.65;;;43.10;24.50;;;;;;6196085;23;20444;-84
2021/05/31 14:48:43;;;;;;;4.90;1.95;;;42.90;24.40;;;;;;6172760;23;20048;-85
2021/05/31 14:51:11;;;;;;;4.43;2.05;;;42.50;24.40;;;;;;6197606;23;20049;-85
2021/05/31 14:53:40;;;;;;;4.65;2.30;;;42.20;24.70;;;;;;6196323;23;20049;-86
2021/05/31 14:56:10;;;;;;;4.28;1.67;;;41.80;24.80;;;;;;6194832;23;20036;-83
2021/05/31 14:58:40;;;;;;;3.05;1.50;;;41.70;24.80;;;;;;6197140;23;20364;-86
2021/05/31 15:01:08;;;;;;;3.58;1.63;;;41.70;24.70;;;;;;6200991;23;20016;-83
2021/05/31 15:03:36;;;;;;;6.15;1.80;;;41.60;24.70;;;;;;6172905;23;20036;-83
2021/05/31 15:06:04;;;;;;;9.68;1.83;;;41.30;24.70;;;;;;6170976;23;20044;-83
2021/05/31 15:08:32;;;;;;;5.55;1.80;;;40.40;25.10;;;;;;6196366;23;20032;-82
2021/05/31 15:11:02;;;;;;;3.05;1.55;;;39.70;25.20;;;;;;6198121;23;20016;-84
2021/05/31 15:13:30;;;;;;;4.57;1.80;;;39.80;25.20;;;;;;6173848;23;20049;-84
2021/05/31 15:16:01;;;;;;;3.42;1.80;;;40.00;25.20;;;;;;6173111;23;20012;-84
2021/05/31 15:18:30;;;;;;;3.55;1.83;;;39.80;25.30;;;;;;6196255;23;20037;-85
2021/05/31 15:20:57;;;;;;;2.40;1.52;;;40.20;25.40;;;;;;6172688;23;20016;-84
2021/05/31 15:23:24;;;;;;;5.03;1.83;;;40.80;25.20;;;;;;6172929;23;20037;-84
2021/05/31 15:25:52;;;;;;;5.03;1.75;;;40.90;25.10;;;;;;6198170;23;20020;-84
2021/05/31 15:28:22;;;;;;;5.38;1.80;;;40.70;25.30;;;;;;6171447;23;20028;-85
2021/05/31 15:30:51;;;;;;;2.42;1.42;;;40.30;25.20;;;;;;6199074;23;20013;-83
2021/05/31 15:33:22;;;;;;;8.50;2.75;;;40.30;25.30;;;;;;6222102;23;20016;-83
2021/05/31 15:35:49;;;;;;;4.15;1.92;;;40.30;25.30;;;;;;6173947;23;20352;-84
2021/05/31 15:38:16;;;;;;;5.80;1.85;;;40.20;25.40;;;;;;6223083;23;20041;-82
2021/05/31 15:40:44;;;;;;;3.15;1.73;;;40.10;25.40;;;;;;6173148;23;20015;-85
2021/05/31 15:43:11;;;;;;;3.50;1.88;;;39.30;25.20;;;;;;6196516;23;20040;-85
2021/05/31 15:45:40;;;;;;;4.07;1.70;;;39.00;25.60;;;;;;6196490;23;20255;-84
2021/05/31 15:48:19;;;;;;;5.63;2.45;;;38.90;25.40;;;;;;6201320;23;20012;-85
2021/05/31 15:50:52;;;;;;;3.38;1.70;;;38.60;25.60;;;;;;6201538;23;20363;-86
2021/05/31 15:53:20;;;;;;;3.65;1.75;;;39.00;25.70;;;;;;6175595;23;20037;-87
2021/05/31 15:55:50;;;;;;;6.43;2.20;;;39.50;25.50;;;;;;6201054;23;20012;-85
2021/05/31 15:58:22;;;;;;;4.55;2.53;;;39.90;25.50;;;;;;6182271;23;20016;-86
2021/05/31 16:00:55;;;;;;;4.45;1.80;;;40.20;25.40;;;;;;6158193;23;20020;-86
2021/05/31 16:03:23;;;;;;;3.78;2.00;;;39.80;25.40;;;;;;6204199;23;20084;-83
2021/05/31 16:05:53;;;;;;;6.97;2.00;;;39.70;25.60;;;;;;6173563;23;20040;-85
2021/05/31 16:08:22;;;;;;;3.33;1.80;;;39.30;25.80;;;;;;6203050;23;20014;-86
2021/05/31 16:10:52;;;;;;;3.95;1.63;;;39.00;25.70;;;;;;6174634;23;20061;-86
2021/05/31 16:13:19;;;;;;;4.90;2.42;;;38.60;25.60;;;;;;6196374;23;20036;-86
2021/05/31 16:15:46;;;;;;;3.70;1.95;;;38.30;25.60;;;;;;6201989;23;20015;-86
2021/05/31 16:18:14;;;;;;;8.48;5.88;;;38.50;25.60;;;;;;6206687;23;20017;-84
2021/05/31 16:20:43;;;;;;;5.25;2.50;;;38.60;25.40;;;;;;6202919;23;20005;-84
2021/05/31 16:23:24;;;;;;;;;;;38.60;25.80;;;;;;6224661;23;20017;-84
2021/05/31 16:25:55;;;;;;;3.58;1.63;;;38.70;25.90;;;;;;6180330;23;19924;-85
2021/05/31 16:28:27;;;;;;;3.70;1.55;;;38.90;25.90;;;;;;6209369;23;20012;-84
2021/05/31 16:30:55;;;;;;;2.78;1.50;;;39.10;25.90;;;;;;6201120;23;20053;-85
2021/05/31 16:33:22;;;;;;;3.83;1.75;;;39.20;25.60;;;;;;6183108;23;20024;-85
2021/05/31 16:35:51;;;;;;;3.05;1.60;;;39.30;25.50;;;;;;6208311;23;20012;-85
2021/05/31 16:38:30;;;;;;;7.93;2.50;;;39.10;26.00;;;;;;6210435;23;20024;-85
2021/05/31 16:40:58;;;;;;;3.45;1.90;;;38.90;25.60;;;;;;6210415;23;20012;-86
2021/05/31 16:43:26;;;;;;;3.90;2.03;;;38.50;25.70;;;;;;6177288;23;20012;-86
2021/05/31 16:45:53;;;;;;;4.13;1.73;;;38.20;25.60;;;;;;6198125;23;20037;-84
2021/05/31 16:48:24;;;;;;;5.20;1.90;;;38.10;25.70;;;;;;6197428;23;20049;-86
2021/05/31 16:50:51;;;;;;;;;;;37.90;25.70;;;;;;6172981;23;20048;-84
2021/05/31 16:53:19;;;;;;;4.90;2.00;;;37.70;25.90;;;;;;6195115;23;19960;-83
2021/05/31 16:55:53;;;;;;;5.57;2.10;;;37.70;25.90;;;;;;6198776;23;20259;-85
2021/05/31 16:58:22;;;;;;;4.78;2.05;;;37.70;25.80;;;;;;6174910;23;20042;-85
2021/05/31 17:00:52;;;;;;;5.20;2.20;;;37.40;25.70;;;;;;6195530;23;20045;-83
2021/05/31 17:03:21;;;;;;;6.35;2.13;;;37.40;25.70;;;;;;6171599;23;20340;-84
2021/05/31 17:05:49;;;;;;;4.22;1.70;;;37.30;25.50;;;;;;6196619;23;20044;-85
2021/05/31 17:08:22;;;;;;;3.63;1.63;;;37.40;25.50;;;;;;6199043;23;20020;-83
2021/05/31 17:14:42;;;;;;;3.58;1.80;;;37.20;25.50;;;;;;6171166;23;20060;-84
2021/05/31 17:19:17;;;;;;;3.85;1.90;;;34.40;26.50;;;;;;6198033;23;20041;-85
2021/05/31 17:21:47;;;;;;;7.50;2.20;;;32.30;27.50;;;;;;6175168;23;20009;-84
2021/05/31 17:24:16;;;;;;;7.10;1.98;;;30.50;28.60;;;;;;6174978;23;20045;-82
2021/05/31 17:26:47;;;;;;;5.15;1.90;;;29.10;29.60;;;;;;6197102;23;20263;-84
2021/05/31 17:29:20;;;;;;;9.65;2.65;;;28.10;30.30;;;;;;6172225;23;20045;-82
2021/05/31 17:34:35;;;;;;;4.30;1.80;;;26.60;31.90;;;;;;6172115;23;20012;-82
2021/05/31 17:37:04;;;;;;;3.42;2.08;;;26.10;32.10;;;;;;6173438;23;20005;-85
2021/05/31 17:39:33;;;;;;;5.13;2.05;;;25.70;32.80;;;;;;6175783;23;20016;-84
2021/05/31 17:42:06;;;;;;;4.20;2.10;;;25.60;33.00;;;;;;6176457;23;20013;-84
2021/05/31 17:44:36;;;;;;;11.95;2.50;;;25.40;33.40;;;;;;6187517;23;20008;-85
2021/05/31 17:47:04;;;;;;;4.30;2.10;;;25.10;33.70;;;;;;6206204;23;20009;-84
2021/05/31 17:49:31;;;;;;;8.90;1.80;;;24.80;33.80;;;;;;6174665;23;20067;-83
2021/05/31 17:52:03;;;;;;;4.10;1.92;;;24.40;34.10;;;;;;6196994;23;20012;-86
2021/05/31 17:54:31;;;;;;;4.78;2.20;;;24.20;34.80;;;;;;6170619;23;20045;-83
2021/05/31 17:56:59;;;;;;;;;;;24.00;35.00;;;;;;6194357;23;20037;-83
2021/05/31 17:59:28;;;;;;;5.30;2.00;;;23.70;35.10;;;;;;6195825;23;19948;-84
2021/05/31 18:01:55;;;;;;;4.15;1.67;;;23.50;34.90;;;;;;6197665;23;20008;-84
2021/05/31 18:04:25;;;;;;;4.97;2.13;;;23.40;34.80;;;;;;6172212;23;20020;-85
2021/05/31 18:06:54;;;;;;;10.07;2.80;;;23.20;34.30;;;;;;6198090;23;20033;-83
2021/05/31 18:09:22;;;;;;;4.50;1.92;;;23.10;34.70;;;;;;6176718;23;20012;-83
2021/05/31 18:11:51;;;;;;;4.68;2.05;;;23.00;34.70;;;;;;6178360;23;20020;-84
2021/05/31 18:14:19;;;;;;;5.15;2.22;;;22.90;35.00;;;;;;6203002;23;20013;-83
2021/05/31 18:16:52;;;;;;;8.98;1.92;;;22.80;35.10;;;;;;6198944;23;20052;-82
2021/05/31 18:19:23;;;;;;;4.93;1.90;;;22.80;35.70;;;;;;6201502;23;20037;-83
2021/05/31 18:21:52;;;;;;;10.55;4.90;;;22.80;35.80;;;;;;6173286;23;20037;-83
2021/05/31 18:24:21;;;;;;;6.28;2.42;;;22.70;35.90;;;;;;6203105;23;20021;-86
2021/05/31 18:26:50;;;;;;;4.35;2.00;;;22.50;36.00;;;;;;6200946;23;20024;-84
2021/05/31 18:29:21;;;;;;;6.35;2.25;;;22.40;36.10;;;;;;6202374;23;20049;-85
2021/05/31 18:31:55;;;;;;;7.53;2.78;;;22.30;36.60;;;;;;6202100;23;20028;-83
2021/05/31 18:34:29;;;;;;;7.32;2.60;;;22.10;37.00;;;;;;6173844;23;20045;-83
2021/05/31 18:36:59;;;;;;;7.40;2.53;;;22.00;36.20;;;;;;6175714;23;20020;-83
2021/05/31 18:39:31;;;;;;;7.78;3.45;;;21.90;36.30;;;;;;6151284;23;20045;-84
2021/05/31 18:41:59;;;;;;;7.72;4.20;;;21.70;36.40;;;;;;6198492;23;20015;-83
2021/05/31 18:44:29;;;;;;;7.72;3.42;;;21.60;37.30;;;;;;6176299;23;20220;-84
2021/05/31 18:46:59;;;;;;;8.90;2.53;;;21.50;38.20;;;;;;6201271;23;20245;-85
2021/05/31 18:49:32;;;;;;;5.38;2.35;;;21.30;38.80;;;;;;6175170;23;20012;-85
2021/05/31 18:52:00;;;;;;;7.90;2.78;;;21.10;38.90;;;;;;6200010;23;20040;-83
2021/05/31 18:54:28;;;;;;;7.78;3.30;;;21.10;39.50;;;;;;6176132;23;20013;-85
2021/05/31 18:56:56;;;;;;;7.18;3.55;;;20.90;40.00;;;;;;6197896;23;20037;-80
2021/05/31 18:59:53;;;;;;;5.95;2.90;;;20.80;40.60;;;;;;6197546;23;20052;-87
2021/05/31 19:02:30;;;;;;;5.72;2.63;;;20.70;40.90;;;;;;6177369;23;20044;-86
2021/05/31 19:05:00;;;;;;;6.65;3.00;;;20.60;41.00;;;;;;6174542;23;20009;-84
2021/05/31 19:07:31;;;;;;;6.18;3.30;;;20.50;42.00;;;;;;6174907;23;20016;-86
2021/05/31 19:10:03;;;;;;;8.77;3.60;;;20.40;42.00;;;;;;6198988;23;20042;-85
2021/05/31 19:12:32;;;;;;;7.70;3.40;;;20.20;42.40;;;;;;6173464;23;20037;-86
2021/05/31 19:15:01;;;;;;;8.03;3.37;;;20.10;42.80;;;;;;6173048;23;20040;-85
2021/05/31 19:17:34;;;;;;;7.32;3.28;;;20.00;43.30;;;;;;6176272;23;20077;-86
2021/05/31 19:20:05;;;;;;;7.95;3.70;;;19.90;43.90;;;;;;6198852;23;20045;-85
2021/05/31 19:22:36;;;;;;;8.82;4.82;;;19.80;44.00;;;;;;6176350;23;20012;-86
2021/05/31 19:25:07;;;;;;;9.90;3.80;;;19.70;44.50;;;;;;6205052;23;20020;-86
2021/05/31 19:27:41;;;;;;;11.10;3.72;;;19.50;45.30;;;;;;6205659;23;20016;-86
2021/05/31 19:30:17;;;;;;;9.40;4.60;;;19.40;45.70;;;;;;6204240;23;20024;-85
2021/05/31 19:32:49;;;;;;;10.18;4.15;;;19.30;46.50;;;;;;6204784;23;20012;-86
2021/05/31 19:35:20;;;;;;;12.85;4.90;;;19.20;47.10;;;;;;6178859;23;20032;-84
2021/05/31 19:37:52;;;;;;;8.40;4.70;;;19.20;47.70;;;;;;6203350;23;20013;-86
2021/05/31 19:40:22;;;;;;;8.23;4.30;;;19.10;47.50;;;;;;6177482;23;20044;-87
2021/05/31 19:42:52;;;;;;;9.63;3.83;;;19.00;47.90;;;;;;6204463;23;20249;-85
2021/05/31 19:45:22;;;;;;;8.40;4.68;;;18.90;48.60;;;;;;6200020;23;20020;-86
2021/05/31 19:47:53;;;;;;;11.35;5.30;;;18.80;49.90;;;;;;6199302;23;20009;-86
2021/05/31 19:50:27;;;;;;;13.80;8.15;;;18.70;50.50;;;;;;6204978;23;20009;-87
2021/05/31 19:53:15;;;;;;;10.43;4.93;;;18.70;50.40;;;;;;6203584;23;20009;-90
2021/05/31 19:55:57;;;;;;;5.70;3.33;;;18.60;50.30;;;;;;6184717;23;20016;-88
2021/05/31 20:01:16;;;;;;;8.18;4.65;;;18.70;50.40;;;;;;6204338;23;20072;-86
2021/05/31 20:03:50;;;;;;;12.15;4.00;;;18.50;50.90;;;;;;6181349;23;20009;-88
2021/05/31 20:06:23;;;;;;;9.32;4.18;;;18.30;51.30;;;;;;6175017;23;20013;-87
2021/05/31 20:08:51;;;;;;;8.18;4.10;;;18.20;51.80;;;;;;6177050;23;20020;-86
2021/05/31 20:11:21;;;;;;;6.43;3.78;;;18.20;52.10;;;;;;6199120;23;20041;-89
2021/05/31 20:13:49;;;;;;;6.97;3.55;;;18.20;51.90;;;;;;6199978;23;20288;-87
2021/05/31 20:16:19;;;;;;;7.22;3.92;;;18.30;51.50;;;;;;6179870;23;20005;-85
2021/05/31 20:18:50;;;;;;;8.07;4.40;;;18.20;51.10;;;;;;6175778;23;20049;-87
2021/05/31 20:21:19;;;;;;;9.02;4.43;;;18.10;52.50;;;;;;6202966;23;20240;-88
2021/05/31 20:23:48;;;;;;;11.02;5.57;;;17.90;53.10;;;;;;6196728;23;20344;-87
2021/05/31 20:26:19;;;;;;;12.43;7.53;;;17.80;53.60;;;;;;6201928;23;20237;-87
2021/05/31 20:28:47;;;;;;;10.82;5.82;;;17.70;54.30;;;;;;6202082;23;20025;-87